createdAt,value
2023-05-14T00:00:20.603Z,8.38
2023-05-14T00:02:50.480Z,7.65
2023-05-14T00:05:17.096Z,7.85
2023-05-14T00:07:43.771Z,9.10
2023-05-14T00:10:14.607Z,7.28
2023-05-14T00:12:41.236Z,7.78
2023-05-14T00:15:17.249Z,6.78
2023-05-14T00:17:44.014Z,7.20
2023-05-14T00:20:14.084Z,7.70
2023-05-14T00:22:41.071Z,7.80
2023-05-14T00:25:08.903Z,7.43
2023-05-14T00:27:38.460Z,7.45
2023-05-14T00:30:07.006Z,8.52
2023-05-14T00:32:34.099Z,7.20
2023-05-14T00:35:02.975Z,8.13
2023-05-14T00:37:29.578Z,7.90
2023-05-14T00:39:56.192Z,8.15
2023-05-14T00:42:22.737Z,7.70
2023-05-14T00:44:49.254Z,7.95
2023-05-14T00:47:15.970Z,8.02
2023-05-14T00:49:43.269Z,8.05
2023-05-14T00:52:11.455Z,8.13
2023-05-14T00:54:38.234Z,7.53
2023-05-14T00:57:06.763Z,8.20
2023-05-14T00:59:33.652Z,8.95
2023-05-14T01:02:00.582Z,9.77
2023-05-14T01:04:30.328Z,8.70
2023-05-14T01:07:34.534Z,7.53
2023-05-14T01:10:06.121Z,9.80
2023-05-14T01:12:44.201Z,7.97
2023-05-14T01:15:19.409Z,8.82
2023-05-14T01:17:55.586Z,8.77
2023-05-14T01:20:23.317Z,8.70
2023-05-14T01:22:50.050Z,8.50
2023-05-14T01:25:16.680Z,9.13
2023-05-14T01:27:51.247Z,9.23
2023-05-14T01:30:35.898Z,9.35
2023-05-14T01:33:21.149Z,9.40
2023-05-14T01:35:49.081Z,9.00
2023-05-14T01:38:18.704Z,8.88
2023-05-14T01:40:46.651Z,9.27
2023-05-14T01:43:13.895Z,8.75
2023-05-14T01:45:40.600Z,10.18
2023-05-14T01:48:07.375Z,9.73
2023-05-14T01:50:34.332Z,11.07
2023-05-14T01:53:00.943Z,7.65
2023-05-14T01:55:27.482Z,8.82
2023-05-14T01:57:54.343Z,9.23
2023-05-14T02:00:22.172Z,9.65
2023-05-14T02:02:48.914Z,9.25
2023-05-14T02:05:15.727Z,9.50
2023-05-14T02:07:42.310Z,8.27
2023-05-14T02:10:09.572Z,10.43
2023-05-14T02:12:36.317Z,8.75
2023-05-14T02:15:03.849Z,9.27
2023-05-14T02:17:30.478Z,8.93
2023-05-14T02:19:57.035Z,8.68
2023-05-14T02:22:23.637Z,8.07
2023-05-14T02:24:51.447Z,8.15
2023-05-14T02:27:18.151Z,8.38
2023-05-14T02:29:45.022Z,8.52
2023-05-14T02:32:11.591Z,8.85
2023-05-14T02:34:38.732Z,8.27
2023-05-14T02:37:05.624Z,8.15
2023-05-14T02:39:32.321Z,8.00
2023-05-14T02:41:59.067Z,7.60
2023-05-14T02:44:25.631Z,8.77
2023-05-14T02:46:52.255Z,7.75
2023-05-14T02:49:18.867Z,7.38
2023-05-14T02:51:45.451Z,7.15
2023-05-14T02:54:11.989Z,7.65
2023-05-14T02:56:38.587Z,7.30
2023-05-14T02:59:05.176Z,7.45
2023-05-14T03:01:32.233Z,6.45
2023-05-14T03:03:59.199Z,7.28
2023-05-14T03:06:26.043Z,7.53
2023-05-14T03:08:52.657Z,6.53
2023-05-14T03:11:19.262Z,6.45
2023-05-14T03:13:45.838Z,6.88
2023-05-14T03:16:12.623Z,6.80
2023-05-14T03:18:39.414Z,6.55
2023-05-14T03:21:06.175Z,7.20
2023-05-14T03:23:34.996Z,6.32
2023-05-14T03:26:02.203Z,6.47
2023-05-14T03:28:28.962Z,6.47
2023-05-14T03:30:58.458Z,5.47
2023-05-14T03:33:31.338Z,5.85
2023-05-14T03:36:00.583Z,6.75
2023-05-14T03:38:34.769Z,6.50
2023-05-14T03:41:01.444Z,6.22
2023-05-14T03:43:30.512Z,6.55
2023-05-14T03:45:57.171Z,7.28
2023-05-14T03:48:23.868Z,6.80
2023-05-14T03:50:51.356Z,8.07
2023-05-14T03:53:17.965Z,7.65
2023-05-14T03:55:44.525Z,7.30
2023-05-14T03:58:14.212Z,8.30
2023-05-14T04:00:42.501Z,6.93
2023-05-14T04:03:09.210Z,6.65
2023-05-14T04:05:36.013Z,7.70
2023-05-14T04:08:02.601Z,7.07
2023-05-14T04:10:29.310Z,7.82
2023-05-14T04:12:56.206Z,7.07
2023-05-14T04:15:23.068Z,7.43
2023-05-14T04:17:49.688Z,7.10
2023-05-14T04:20:16.411Z,7.07
2023-05-14T04:22:42.936Z,7.38
2023-05-14T04:25:09.753Z,7.30
2023-05-14T04:27:36.315Z,7.88
2023-05-14T04:30:03.124Z,7.55
2023-05-14T04:32:30.363Z,7.88
2023-05-14T04:34:57.012Z,7.05
2023-05-14T04:37:23.652Z,8.13
2023-05-14T04:39:50.189Z,7.18
2023-05-14T04:42:16.855Z,7.93
2023-05-14T04:44:46.293Z,7.50
2023-05-14T04:47:16.025Z,7.57
2023-05-14T04:49:43.460Z,8.55
2023-05-14T04:52:18.826Z,7.70
2023-05-14T04:54:54.235Z,6.95
2023-05-14T04:57:21.164Z,7.95
2023-05-14T04:59:47.974Z,8.23
2023-05-14T05:02:14.473Z,7.88
2023-05-14T05:04:41.053Z,9.43
2023-05-14T05:07:07.640Z,8.50
2023-05-14T05:09:34.268Z,8.65
2023-05-14T05:12:01.633Z,8.48
2023-05-14T05:14:28.201Z,8.43
2023-05-14T05:16:55.787Z,8.57
2023-05-14T05:19:39.568Z,8.18
2023-05-14T05:22:09.687Z,7.50
2023-05-14T05:24:38.350Z,8.27
2023-05-14T05:27:05.636Z,8.90
2023-05-14T05:29:32.408Z,8.75
2023-05-14T05:32:02.420Z,8.98
2023-05-14T05:34:29.066Z,8.13
2023-05-14T05:36:56.275Z,8.05
2023-05-14T05:39:25.395Z,8.38
2023-05-14T05:44:33.234Z,7.78
2023-05-14T05:46:59.961Z,8.50
2023-05-14T05:49:27.804Z,7.68
2023-05-14T05:51:57.794Z,6.88
2023-05-14T05:54:35.316Z,6.22
2023-05-14T05:57:07.178Z,7.05
2023-05-14T05:59:36.907Z,6.97
2023-05-14T06:02:03.761Z,7.07
2023-05-14T06:04:35.832Z,5.97
2023-05-14T06:07:02.595Z,6.05
2023-05-14T06:09:30.532Z,6.25
2023-05-14T06:12:03.248Z,6.45
2023-05-14T06:14:29.922Z,7.47
2023-05-14T06:16:56.598Z,5.90
2023-05-14T06:19:23.403Z,5.65
2023-05-14T06:21:50.065Z,5.68
2023-05-14T06:24:16.728Z,5.70
2023-05-14T06:26:49.288Z,6.07
2023-05-14T06:29:19.119Z,5.88
2023-05-14T06:31:46.625Z,5.78
2023-05-14T06:34:16.953Z,5.57
2023-05-14T06:36:51.243Z,5.25
2023-05-14T06:39:17.945Z,5.60
2023-05-14T06:41:47.746Z,5.35
2023-05-14T06:44:22.219Z,5.20
2023-05-14T06:46:52.862Z,5.22
2023-05-14T06:49:23.958Z,5.53
2023-05-14T06:51:50.605Z,5.13
2023-05-14T06:54:18.957Z,4.15
2023-05-14T06:56:48.580Z,4.95
2023-05-14T06:59:15.273Z,4.15
2023-05-14T07:01:44.010Z,4.15
2023-05-14T07:04:10.790Z,5.18
2023-05-14T07:06:40.041Z,4.47
2023-05-14T07:09:10.708Z,4.13
2023-05-14T07:11:42.623Z,4.15
2023-05-14T07:14:09.416Z,4.40
2023-05-14T07:16:36.341Z,4.75
2023-05-14T07:19:03.067Z,5.35
2023-05-14T07:21:29.601Z,5.40
2023-05-14T07:23:56.226Z,5.47
2023-05-14T07:26:24.513Z,3.70
2023-05-14T07:28:51.158Z,4.68
2023-05-14T07:31:17.711Z,3.70
2023-05-14T07:33:44.380Z,4.00
2023-05-14T07:36:11.163Z,3.55
2023-05-14T07:38:37.914Z,3.03
2023-05-14T07:41:04.777Z,4.18
2023-05-14T07:43:31.757Z,4.30
2023-05-14T07:45:58.336Z,3.33
2023-05-14T07:48:24.971Z,4.55
2023-05-14T07:50:51.964Z,3.50
2023-05-14T07:53:18.661Z,3.63
2023-05-14T07:55:48.148Z,3.13
2023-05-14T07:58:14.901Z,3.97
2023-05-14T08:00:41.449Z,2.83
2023-05-14T08:03:08.138Z,2.72
2023-05-14T08:05:34.791Z,2.95
2023-05-14T08:08:01.683Z,2.80
2023-05-14T08:10:28.674Z,2.95
2023-05-14T08:13:03.068Z,3.35
2023-05-14T08:27:43.423Z,2.05
2023-05-14T08:46:39.052Z,3.15
2023-05-14T08:57:18.918Z,3.30
2023-05-14T08:59:45.676Z,2.90
2023-05-14T09:02:15.305Z,2.55
2023-05-14T09:04:42.623Z,2.25
2023-05-14T09:07:09.512Z,2.78
2023-05-14T09:09:36.741Z,2.40
2023-05-14T09:12:03.662Z,2.78
2023-05-14T09:14:30.278Z,2.05
2023-05-14T09:16:57.186Z,3.35
2023-05-14T09:19:24.300Z,2.70
2023-05-14T09:21:51.091Z,1.95
2023-05-14T09:24:22.690Z,3.03
2023-05-14T09:26:58.917Z,2.55
2023-05-14T09:29:26.648Z,1.63
2023-05-14T09:31:54.925Z,2.30
2023-05-14T09:34:30.665Z,2.10
2023-05-14T09:37:00.435Z,2.72
2023-05-14T09:39:30.304Z,2.40
2023-05-14T09:41:57.209Z,2.42
2023-05-14T09:44:35.515Z,3.63
2023-05-14T09:47:02.149Z,1.52
2023-05-14T09:49:28.768Z,2.63
2023-05-14T09:51:59.981Z,1.92
2023-05-14T09:54:27.480Z,2.05
2023-05-14T09:56:56.592Z,1.90
2023-05-14T09:59:23.300Z,1.55
2023-05-14T10:01:52.954Z,2.53
2023-05-14T10:04:20.574Z,1.75
2023-05-14T10:06:52.953Z,2.90
2023-05-14T10:09:29.207Z,1.92
2023-05-14T10:12:11.605Z,1.67
2023-05-14T10:14:46.742Z,1.90
2023-05-14T10:17:18.897Z,2.15
2023-05-14T10:19:57.209Z,2.10
2023-05-14T10:22:45.288Z,2.15
2023-05-14T10:25:12.374Z,2.08
2023-05-14T10:27:45.604Z,2.10
2023-05-14T10:30:13.115Z,2.63
2023-05-14T10:33:07.003Z,2.85
2023-05-14T10:35:57.766Z,3.03
2023-05-14T10:38:33.938Z,2.20
2023-05-14T10:41:06.184Z,2.15
2023-05-14T10:43:44.992Z,2.10
2023-05-14T10:46:14.827Z,2.40
2023-05-14T10:48:49.719Z,2.03
2023-05-14T10:53:44.725Z,2.33
2023-05-14T10:56:14.303Z,2.50
2023-05-14T10:58:46.164Z,2.42
2023-05-14T11:01:13.821Z,2.33
2023-05-14T11:04:15.122Z,2.97
2023-05-14T11:06:46.008Z,3.22
2023-05-14T11:09:16.066Z,2.90
2023-05-14T11:12:15.177Z,2.78
2023-05-14T11:14:55.661Z,2.80
2023-05-14T11:17:25.011Z,3.25
2023-05-14T11:19:51.813Z,2.78
2023-05-14T11:22:31.581Z,2.97
2023-05-14T11:24:58.319Z,3.47
2023-05-14T11:27:36.036Z,2.47
2023-05-14T11:30:09.743Z,3.67
2023-05-14T11:32:59.290Z,5.07
2023-05-14T11:35:33.175Z,3.33
2023-05-14T11:38:13.202Z,3.70
2023-05-14T11:41:20.547Z,3.50
2023-05-14T11:44:02.263Z,3.08
2023-05-14T11:49:29.860Z,3.85
2023-05-14T11:52:03.676Z,3.53
2023-05-14T11:54:32.873Z,3.53
2023-05-14T11:57:02.067Z,3.28
2023-05-14T11:59:35.113Z,3.53
2023-05-14T12:02:26.134Z,3.60
2023-05-14T12:07:38.645Z,3.50
2023-05-14T12:10:18.272Z,3.47
2023-05-14T12:12:48.976Z,4.10
2023-05-14T12:15:44.524Z,3.97
2023-05-14T12:21:51.334Z,3.13
2023-05-14T12:24:27.592Z,3.95
2023-05-14T12:27:31.922Z,3.67
2023-05-14T12:30:23.302Z,3.75
2023-05-14T12:43:35.705Z,3.13
2023-05-14T12:46:20.862Z,3.00
2023-05-14T12:58:33.268Z,3.45
2023-05-14T13:01:22.016Z,4.25
2023-05-14T13:04:13.952Z,3.05
2023-05-14T13:12:39.174Z,2.97
2023-05-14T13:19:40.083Z,3.10
2023-05-14T13:21:46.389Z,3.50
2023-05-14T13:37:09.860Z,3.92
2023-05-14T13:45:12.941Z,4.13
2023-05-14T13:50:55.814Z,3.42
2023-05-14T14:01:12.938Z,3.97
2023-05-14T14:41:38.854Z,3.30
2023-05-14T14:44:08.136Z,3.00
2023-05-14T15:12:10.923Z,2.83
2023-05-14T15:14:37.526Z,2.63
2023-05-14T15:17:04.440Z,2.63
2023-05-14T15:19:32.354Z,2.50
2023-05-14T15:21:58.928Z,3.03
2023-05-14T15:24:26.238Z,3.30
2023-05-14T15:26:53.750Z,5.75
2023-05-14T15:29:20.567Z,5.28
2023-05-14T15:31:47.469Z,15.70
2023-05-14T15:34:14.050Z,4.18
2023-05-14T15:36:40.828Z,3.53
2023-05-14T15:39:10.237Z,5.57
2023-05-14T15:41:37.124Z,4.57
2023-05-14T15:44:03.966Z,6.53
2023-05-14T15:46:31.041Z,4.35
2023-05-14T15:48:57.983Z,3.33
2023-05-14T15:51:24.558Z,3.38
2023-05-14T15:53:53.543Z,2.83
2023-05-14T15:56:21.202Z,4.22
2023-05-14T15:58:48.307Z,5.90
2023-05-14T16:01:14.908Z,4.63
2023-05-14T16:03:41.698Z,3.70
2023-05-14T16:06:08.384Z,4.65
2023-05-14T16:08:34.917Z,4.05
2023-05-14T16:11:01.615Z,4.55
2023-05-14T16:13:28.243Z,3.95
2023-05-14T16:15:55.198Z,5.15
2023-05-14T16:18:22.353Z,4.70
2023-05-14T16:20:48.889Z,4.90
2023-05-14T16:23:15.536Z,3.63
2023-05-14T16:25:42.186Z,3.83
2023-05-14T16:28:08.893Z,4.35
2023-05-14T16:30:35.573Z,4.10
2023-05-14T16:33:02.150Z,3.65
2023-05-14T16:35:28.919Z,3.47
2023-05-14T16:37:56.159Z,4.22
2023-05-14T16:40:23.747Z,3.42
2023-05-14T16:42:51.197Z,3.95
2023-05-14T16:45:18.056Z,3.15
2023-05-14T16:47:44.624Z,4.78
2023-05-14T16:50:11.727Z,4.95
2023-05-14T16:52:38.252Z,3.90
2023-05-14T16:55:05.282Z,4.13
2023-05-14T16:57:32.091Z,5.18
2023-05-14T16:59:58.700Z,4.72
2023-05-14T17:02:25.668Z,3.83
2023-05-14T17:04:54.172Z,3.60
2023-05-14T17:07:20.797Z,3.42
2023-05-14T17:09:47.398Z,4.03
2023-05-14T17:12:14.051Z,3.47
2023-05-14T17:14:40.921Z,4.22
2023-05-14T17:17:07.529Z,3.90
2023-05-14T17:19:34.282Z,3.78
2023-05-14T17:22:00.990Z,3.63
2023-05-14T17:24:27.517Z,7.15
2023-05-14T17:26:54.084Z,3.50
2023-05-14T17:29:20.676Z,4.10
2023-05-14T17:31:48.316Z,3.85
2023-05-14T17:34:15.019Z,4.15
2023-05-14T17:36:41.572Z,3.72
2023-05-14T17:39:08.125Z,3.08
2023-05-14T17:41:34.952Z,4.15
2023-05-14T17:44:01.531Z,3.50
2023-05-14T17:46:28.221Z,3.42
2023-05-14T17:48:54.838Z,3.58
2023-05-14T17:51:21.361Z,3.08
2023-05-14T17:53:47.914Z,3.80
2023-05-14T17:56:16.544Z,4.35
2023-05-14T17:58:43.283Z,4.20
2023-05-14T18:01:09.995Z,5.13
2023-05-14T18:03:36.700Z,3.90
2023-05-14T18:06:03.896Z,4.70
2023-05-14T18:08:30.610Z,4.88
2023-05-14T18:10:58.491Z,4.57
2023-05-14T18:13:25.157Z,4.35
2023-05-14T18:15:54.258Z,4.32
2023-05-14T18:18:21.744Z,4.40
2023-05-14T18:20:49.503Z,4.97
2023-05-14T18:23:16.233Z,4.60
2023-05-14T18:25:43.076Z,4.18
2023-05-14T18:28:09.815Z,4.28
2023-05-14T18:30:36.391Z,3.50
2023-05-14T18:33:03.573Z,3.40
2023-05-14T18:35:30.880Z,3.80
2023-05-14T18:37:57.511Z,4.30
2023-05-14T18:40:24.068Z,3.30
2023-05-14T18:42:50.821Z,4.28
2023-05-14T18:45:17.536Z,3.05
2023-05-14T18:47:44.170Z,3.05
2023-05-14T18:50:11.119Z,3.33
2023-05-14T18:52:38.225Z,3.25
2023-05-14T18:55:05.264Z,3.47
2023-05-14T18:57:34.688Z,3.03
2023-05-14T19:00:02.071Z,3.78
2023-05-14T19:02:28.955Z,3.40
2023-05-14T19:04:56.266Z,4.13
2023-05-14T19:07:22.979Z,3.78
2023-05-14T19:09:49.531Z,3.15
2023-05-14T19:12:16.348Z,3.20
2023-05-14T19:14:43.046Z,3.22
2023-05-14T19:17:09.777Z,2.33
2023-05-14T19:19:36.655Z,2.92
2023-05-14T19:22:03.316Z,3.25
2023-05-14T19:24:30.279Z,2.70
2023-05-14T19:26:57.026Z,2.53
2023-05-14T19:29:23.619Z,3.47
2023-05-14T19:31:50.281Z,2.72
2023-05-14T19:34:16.936Z,2.40
2023-05-14T19:36:43.583Z,2.90
2023-05-14T19:39:10.933Z,2.03
2023-05-14T19:41:37.510Z,1.95
2023-05-14T19:44:04.190Z,2.60
2023-05-14T19:46:30.832Z,2.50
2023-05-14T19:48:57.456Z,2.25
2023-05-14T19:51:25.337Z,2.83
2023-05-14T19:53:51.925Z,3.03
2023-05-14T19:56:18.517Z,2.72
2023-05-14T19:58:45.193Z,2.53
2023-05-14T20:01:12.081Z,2.83
2023-05-14T20:03:38.927Z,2.22
2023-05-14T20:06:07.057Z,2.42
2023-05-14T20:08:33.832Z,2.80
2023-05-14T20:11:00.667Z,3.20
2023-05-14T20:13:27.269Z,2.83
2023-05-14T20:15:55.280Z,2.65
2023-05-14T20:18:21.911Z,3.08
2023-05-14T20:20:49.093Z,3.90
2023-05-14T20:23:15.995Z,3.35
2023-05-14T20:25:43.105Z,3.72
2023-05-14T20:28:10.496Z,3.88
2023-05-14T20:30:37.091Z,3.42
2023-05-14T20:33:04.124Z,4.60
2023-05-14T20:35:31.131Z,3.78
2023-05-14T20:37:57.736Z,3.55
2023-05-14T20:40:24.841Z,3.75
2023-05-14T20:42:52.260Z,4.15
2023-05-14T20:45:19.069Z,4.90
2023-05-14T20:47:45.708Z,4.03
2023-05-14T20:50:13.650Z,3.88
2023-05-14T20:52:40.436Z,3.38
2023-05-14T20:55:08.011Z,4.78
2023-05-14T20:57:34.583Z,4.18
2023-05-14T21:00:02.490Z,4.20
2023-05-14T21:02:29.192Z,3.83
2023-05-14T21:04:55.910Z,4.20
2023-05-14T21:07:22.756Z,4.55
2023-05-14T21:09:52.379Z,3.90
2023-05-14T21:12:19.421Z,4.07
2023-05-14T21:14:46.227Z,4.85
2023-05-14T21:17:12.919Z,3.83
2023-05-14T21:19:39.664Z,4.05
2023-05-14T21:22:07.110Z,5.10
2023-05-14T21:24:33.659Z,4.03
2023-05-14T21:27:00.318Z,3.83
2023-05-14T21:29:26.864Z,4.20
2023-05-14T21:31:53.422Z,6.25
2023-05-14T21:34:20.469Z,5.70
2023-05-14T21:36:47.502Z,4.57
2023-05-14T21:39:14.038Z,4.63
2023-05-14T21:41:40.632Z,4.20
2023-05-14T21:44:07.124Z,4.50
2023-05-14T21:46:33.860Z,3.85
2023-05-14T21:49:00.607Z,3.95
2023-05-14T21:51:27.275Z,5.03
2023-05-14T21:53:53.805Z,3.95
2023-05-14T21:56:21.178Z,3.90
2023-05-14T21:58:47.780Z,4.57
2023-05-14T22:01:14.328Z,5.22
2023-05-14T22:03:41.480Z,4.90
2023-05-14T22:06:08.072Z,4.93
2023-05-14T22:08:34.654Z,5.53
2023-05-14T22:11:01.334Z,5.35
2023-05-14T22:13:27.975Z,5.35
2023-05-14T22:16:04.902Z,5.18
2023-05-14T22:18:36.672Z,5.63
2023-05-14T22:21:03.691Z,6.03
2023-05-14T22:23:30.420Z,6.60
2023-05-14T22:25:57.968Z,6.43
2023-05-14T22:28:24.607Z,8.07
2023-05-14T22:30:51.222Z,7.40
2023-05-14T22:33:19.291Z,7.32
2023-05-14T22:35:45.915Z,8.90
2023-05-14T22:38:13.585Z,7.75
2023-05-14T22:40:40.179Z,7.53
2023-05-14T22:43:06.744Z,9.48
2023-05-14T22:45:33.375Z,7.55
2023-05-14T22:48:00.059Z,9.05
2023-05-14T22:50:26.850Z,8.55
2023-05-14T22:52:53.380Z,8.77
2023-05-14T22:55:19.915Z,7.97
2023-05-14T22:57:46.507Z,8.15
2023-05-14T23:00:13.894Z,8.43
2023-05-14T23:02:40.687Z,7.07
2023-05-14T23:05:08.563Z,7.45
2023-05-14T23:07:35.467Z,7.35
2023-05-14T23:10:02.181Z,7.30
2023-05-14T23:12:28.748Z,7.50
2023-05-14T23:14:55.494Z,7.85
2023-05-14T23:17:22.164Z,8.13
2023-05-14T23:19:48.874Z,8.43
2023-05-14T23:22:15.650Z,7.65
2023-05-14T23:24:42.219Z,7.82
2023-05-14T23:27:09.133Z,7.95
2023-05-14T23:29:35.648Z,7.78
2023-05-14T23:32:02.326Z,8.65
2023-05-14T23:34:28.895Z,7.47
2023-05-14T23:36:55.949Z,7.07
2023-05-14T23:39:22.784Z,6.38
2023-05-14T23:41:49.429Z,7.07
2023-05-14T23:44:16.207Z,7.20
2023-05-14T23:46:42.846Z,7.65
2023-05-14T23:49:09.483Z,7.40
2023-05-14T23:51:37.745Z,8.18
2023-05-14T23:54:04.682Z,7.07
2023-05-14T23:56:31.714Z,7.43
2023-05-14T23:58:58.279Z,5.93
